createdAt,value
2023-04-14T00:02:21.253Z,13.13
2023-04-14T00:05:23.754Z,13.00
2023-04-14T00:08:26.174Z,13.03
2023-04-14T00:11:28.391Z,12.89
2023-04-14T00:14:30.690Z,12.82
2023-04-14T00:17:33.064Z,12.61
2023-04-14T00:20:35.343Z,12.81
2023-04-14T00:23:37.630Z,12.77
2023-04-14T00:26:39.890Z,12.81
2023-04-14T00:29:42.173Z,12.70
2023-04-14T00:32:46.094Z,12.80
2023-04-14T00:35:48.424Z,12.78
2023-04-14T00:38:50.712Z,12.80
2023-04-14T00:41:52.907Z,12.85
2023-04-14T00:44:55.333Z,12.70
2023-04-14T00:47:58.211Z,12.51
2023-04-14T00:51:00.511Z,12.71
2023-04-14T00:54:03.109Z,12.65
2023-04-14T00:57:05.378Z,12.68
2023-04-14T01:00:08.261Z,12.69
2023-04-14T01:03:10.672Z,12.68
2023-04-14T01:06:13.153Z,12.85
2023-04-14T01:09:16.069Z,12.83
2023-04-14T01:12:25.246Z,12.92
2023-04-14T01:15:47.719Z,12.91
2023-04-14T01:19:05.310Z,12.88
2023-04-14T01:22:07.606Z,12.76
2023-04-14T01:25:22.322Z,12.82
2023-04-14T01:28:43.222Z,12.79
2023-04-14T01:32:01.108Z,12.78
2023-04-14T01:35:08.434Z,12.72
2023-04-14T01:38:12.822Z,12.69
2023-04-14T01:41:16.868Z,12.72
2023-04-14T01:44:19.795Z,12.71
2023-04-14T01:47:22.062Z,12.75
2023-04-14T01:50:24.401Z,12.71
2023-04-14T01:53:27.280Z,12.69
2023-04-14T01:56:29.664Z,12.80
2023-04-14T01:59:33.180Z,12.78
2023-04-14T02:02:35.871Z,12.82
2023-04-14T02:05:39.078Z,12.83
2023-04-14T02:08:41.528Z,12.71
2023-04-14T02:11:43.844Z,12.68
2023-04-14T02:14:46.711Z,12.66
2023-04-14T02:17:49.745Z,12.72
2023-04-14T02:20:52.780Z,12.70
2023-04-14T02:23:55.097Z,12.65
2023-04-14T02:27:11.786Z,12.58
2023-04-14T02:30:19.920Z,12.69
2023-04-14T02:33:22.824Z,12.65
2023-04-14T02:36:32.562Z,12.54
2023-04-14T02:39:41.258Z,12.50
2023-04-14T02:42:46.070Z,12.53
2023-04-14T02:45:50.744Z,12.53
2023-04-14T02:48:53.373Z,12.47
2023-04-14T02:51:55.942Z,12.55
2023-04-14T02:54:58.891Z,12.49
2023-04-14T02:58:01.334Z,12.50
2023-04-14T03:01:05.952Z,12.54
2023-04-14T03:04:08.739Z,12.56
2023-04-14T03:07:13.703Z,12.50
2023-04-14T03:10:16.631Z,12.50
2023-04-14T03:13:19.737Z,12.44
2023-04-14T03:16:23.033Z,12.54
2023-04-14T03:19:25.391Z,12.49
2023-04-14T03:22:28.333Z,12.47
2023-04-14T03:25:33.062Z,12.26
2023-04-14T03:28:39.345Z,12.33
2023-04-14T03:31:44.467Z,12.31
2023-04-14T03:34:48.801Z,12.24
2023-04-14T03:37:51.608Z,12.28
2023-04-14T03:40:55.045Z,12.20
2023-04-14T03:43:58.979Z,12.15
2023-04-14T03:47:03.971Z,12.18
2023-04-14T03:50:09.313Z,12.15
2023-04-14T03:53:12.883Z,12.13
2023-04-14T03:56:15.322Z,12.20
2023-04-14T03:59:18.187Z,12.16
2023-04-14T04:02:21.185Z,12.03
2023-04-14T04:05:23.663Z,12.00
2023-04-14T04:08:25.919Z,11.96
2023-04-14T04:11:28.143Z,11.92
2023-04-14T04:14:32.244Z,12.10
2023-04-14T04:17:35.437Z,12.03
2023-04-14T04:20:39.477Z,12.09
2023-04-14T04:23:42.061Z,12.00
2023-04-14T04:26:44.823Z,11.92
2023-04-14T04:29:47.559Z,11.91
2023-04-14T04:32:50.164Z,11.89
2023-04-14T04:35:52.537Z,12.02
2023-04-14T04:38:57.126Z,12.15
2023-04-14T04:42:09.212Z,12.04
2023-04-14T04:45:12.391Z,11.86
2023-04-14T04:48:16.788Z,11.76
2023-04-14T04:51:19.951Z,11.53
2023-04-14T04:54:22.222Z,11.42
2023-04-14T04:57:24.435Z,11.45
2023-04-14T05:00:27.264Z,11.47
2023-04-14T05:03:29.566Z,11.51
2023-04-14T05:06:34.839Z,11.51
2023-04-14T05:09:37.043Z,11.57
2023-04-14T05:12:39.389Z,11.39
2023-04-14T05:15:41.649Z,11.28
2023-04-14T05:18:43.973Z,11.23
2023-04-14T05:21:46.406Z,11.43
2023-04-14T05:24:50.545Z,11.50
2023-04-14T05:27:52.856Z,11.42
2023-04-14T05:31:01.261Z,11.49
2023-04-14T05:34:04.185Z,11.50
2023-04-14T05:37:06.571Z,11.53
2023-04-14T05:40:09.210Z,11.16
2023-04-14T05:43:11.570Z,11.14
2023-04-14T05:46:13.903Z,11.19
2023-04-14T05:49:16.398Z,11.36
2023-04-14T05:52:18.628Z,11.52
2023-04-14T05:55:21.543Z,11.62
2023-04-14T05:58:26.342Z,11.51
2023-04-14T06:01:28.604Z,11.49
2023-04-14T06:04:31.070Z,11.54
2023-04-14T06:07:34.119Z,11.49
2023-04-14T06:10:36.482Z,11.50
2023-04-14T06:13:38.851Z,11.64
2023-04-14T06:16:41.254Z,11.57
2023-04-14T06:19:43.616Z,11.48
2023-04-14T06:22:46.185Z,11.52
2023-04-14T06:25:48.475Z,11.57
2023-04-14T06:28:50.785Z,11.52
2023-04-14T06:31:54.830Z,11.41
2023-04-14T06:34:57.222Z,11.58
2023-04-14T06:37:59.445Z,11.60
2023-04-14T06:41:02.013Z,11.57
2023-04-14T06:44:04.320Z,11.43
2023-04-14T06:47:06.534Z,11.57
2023-04-14T06:50:09.126Z,11.46
2023-04-14T06:53:11.408Z,11.44
2023-04-14T06:56:13.682Z,11.34
2023-04-14T06:59:15.930Z,11.35
2023-04-14T07:02:18.238Z,11.13
2023-04-14T07:05:20.538Z,11.08
2023-04-14T07:08:22.771Z,10.92
2023-04-14T07:11:24.982Z,11.00
2023-04-14T07:14:27.287Z,10.86
2023-04-14T07:17:30.262Z,10.79
2023-04-14T07:20:32.804Z,10.80
2023-04-14T07:23:35.266Z,10.41
2023-04-14T07:26:37.521Z,10.51
2023-04-14T07:29:39.779Z,10.69
2023-04-14T07:32:42.347Z,10.77
2023-04-14T07:35:58.190Z,10.77
2023-04-14T07:39:04.059Z,10.94
2023-04-14T07:42:06.819Z,11.15
2023-04-14T07:45:09.914Z,11.11
2023-04-14T07:48:12.247Z,11.06
2023-04-14T07:51:14.824Z,10.94
2023-04-14T07:54:17.154Z,11.04
2023-04-14T07:57:19.406Z,11.06
2023-04-14T08:00:23.180Z,10.99
2023-04-14T08:03:26.107Z,11.21
2023-04-14T08:06:28.544Z,11.22
2023-04-14T08:09:30.814Z,11.36
2023-04-14T08:12:33.174Z,11.27
2023-04-14T08:15:35.689Z,11.02
2023-04-14T08:18:40.320Z,11.07
2023-04-14T08:21:42.581Z,11.13
2023-04-14T08:24:44.833Z,11.11
2023-04-14T08:27:47.268Z,11.00
2023-04-14T08:30:49.703Z,11.01
2023-04-14T08:33:52.901Z,11.03
2023-04-14T08:36:56.014Z,10.86
2023-04-14T08:39:58.252Z,11.05
2023-04-14T08:43:08.413Z,11.15
2023-04-14T08:46:13.764Z,10.99
2023-04-14T08:49:18.230Z,11.11
2023-04-14T08:52:22.016Z,10.97
2023-04-14T08:55:24.386Z,10.91
2023-04-14T08:58:26.589Z,10.72
2023-04-14T09:01:29.543Z,10.77
2023-04-14T09:04:33.558Z,10.78
2023-04-14T09:07:36.414Z,10.92
2023-04-14T09:10:38.789Z,10.97
2023-04-14T09:13:41.059Z,10.78
2023-04-14T09:16:44.876Z,10.81
2023-04-14T09:20:35.173Z,10.65
2023-04-14T09:23:10.542Z,10.51
2023-04-14T09:26:13.626Z,10.59
2023-04-14T09:29:16.781Z,10.65
2023-04-14T09:32:19.066Z,10.31
2023-04-14T09:35:21.314Z,10.57
2023-04-14T09:38:37.262Z,10.62
2023-04-14T09:41:39.965Z,10.38
2023-04-14T09:44:59.046Z,10.41
2023-04-14T09:48:11.081Z,10.39
2023-04-14T09:51:14.118Z,10.24
2023-04-14T09:54:25.944Z,10.02
2023-04-14T09:57:28.988Z,9.84
2023-04-14T10:00:31.318Z,9.92
2023-04-14T10:03:40.856Z,9.88
2023-04-14T10:06:43.125Z,9.88
2023-04-14T10:09:47.862Z,9.91
2023-04-14T10:12:50.956Z,10.07
2023-04-14T10:15:53.371Z,10.12
2023-04-14T10:18:57.591Z,9.89
2023-04-14T10:21:59.900Z,9.88
2023-04-14T10:25:02.275Z,10.07
2023-04-14T10:28:04.560Z,9.97
2023-04-14T10:31:09.330Z,10.00
2023-04-14T10:34:13.721Z,10.15
2023-04-14T10:37:16.140Z,10.07
2023-04-14T10:40:18.893Z,10.21
2023-04-14T10:43:21.467Z,9.87
2023-04-14T10:46:24.442Z,9.90
2023-04-14T10:49:31.295Z,10.01
2023-04-14T10:52:33.670Z,9.89
2023-04-14T10:55:51.605Z,10.10
2023-04-14T10:58:56.051Z,10.44
2023-04-14T11:01:58.375Z,10.21
2023-04-14T11:05:14.161Z,10.36
2023-04-14T11:08:24.639Z,10.48
2023-04-14T11:11:28.147Z,10.60
2023-04-14T11:14:31.536Z,10.46
2023-04-14T11:17:37.758Z,10.38
2023-04-14T11:20:40.618Z,10.48
2023-04-14T11:23:43.562Z,10.57
2023-04-14T11:26:45.842Z,10.77
2023-04-14T11:29:48.754Z,10.81
2023-04-14T11:32:57.340Z,10.84
2023-04-14T11:35:59.933Z,10.61
2023-04-14T11:39:04.034Z,10.55
2023-04-14T11:42:06.257Z,10.52
2023-04-14T11:45:09.154Z,10.60
2023-04-14T11:48:12.372Z,10.51
2023-04-14T11:51:14.588Z,10.26
2023-04-14T11:54:16.848Z,10.31
2023-04-14T11:57:19.219Z,10.25
2023-04-14T12:00:21.625Z,10.36
2023-04-14T12:03:28.896Z,10.57
2023-04-14T12:06:35.377Z,10.62
2023-04-14T12:09:41.421Z,10.70
2023-04-14T12:12:43.705Z,10.66
2023-04-14T12:15:46.489Z,10.64
2023-04-14T12:18:48.779Z,10.63
2023-04-14T12:21:53.080Z,10.48
2023-04-14T12:24:58.493Z,10.55
2023-04-14T12:28:02.794Z,10.61
2023-04-14T12:31:05.163Z,10.94
2023-04-14T12:34:07.680Z,10.76
2023-04-14T12:37:10.663Z,10.84
2023-04-14T12:40:12.937Z,10.87
2023-04-14T12:43:16.820Z,11.00
2023-04-14T12:46:28.121Z,10.96
2023-04-14T12:49:37.414Z,11.05
2023-04-14T12:52:40.573Z,11.04
2023-04-14T12:55:42.854Z,11.04
2023-04-14T12:58:48.634Z,11.05
2023-04-14T13:01:51.046Z,11.19
2023-04-14T13:04:53.349Z,10.98
2023-04-14T13:07:56.445Z,11.37
2023-04-14T13:10:58.674Z,11.48
2023-04-14T13:14:00.829Z,11.85
2023-04-14T13:17:03.185Z,12.59
2023-04-14T13:20:06.071Z,12.87
2023-04-14T13:23:08.299Z,12.67
2023-04-14T13:26:10.862Z,13.00
2023-04-14T13:29:16.230Z,12.81
2023-04-14T13:32:18.539Z,12.88
2023-04-14T13:35:21.165Z,12.50
2023-04-14T13:38:23.410Z,12.45
2023-04-14T13:41:28.762Z,12.27
2023-04-14T13:44:32.536Z,12.44
2023-04-14T13:47:34.835Z,12.07
2023-04-14T13:50:37.283Z,12.39
2023-04-14T13:53:39.531Z,12.24
2023-04-14T13:56:41.819Z,12.90
2023-04-14T13:59:44.064Z,13.08
2023-04-14T14:02:46.664Z,12.95
2023-04-14T14:05:49.006Z,13.27
2023-04-14T14:09:06.128Z,13.33
2023-04-14T14:12:11.549Z,13.34
2023-04-14T14:15:13.836Z,12.72
2023-04-14T14:18:16.654Z,12.91
2023-04-14T14:21:19.009Z,13.07
2023-04-14T14:24:21.250Z,13.25
2023-04-14T14:27:23.549Z,13.43
2023-04-14T14:30:26.075Z,13.80
2023-04-14T14:33:28.332Z,14.20
2023-04-14T14:36:30.673Z,14.01
2023-04-14T14:39:33.015Z,14.36
2023-04-14T14:42:35.470Z,14.48
2023-04-14T14:45:37.852Z,14.79
2023-04-14T14:48:40.250Z,14.75
2023-04-14T14:51:42.850Z,14.25
2023-04-14T14:54:45.161Z,14.32
2023-04-14T14:57:47.415Z,14.86
2023-04-14T15:00:50.168Z,14.60
2023-04-14T15:03:54.481Z,14.61
2023-04-14T15:06:56.867Z,14.68
2023-04-14T15:09:59.227Z,14.90
2023-04-14T15:13:01.524Z,14.99
2023-04-14T15:16:04.638Z,14.82
2023-04-14T15:19:06.916Z,14.66
2023-04-14T15:22:09.128Z,14.34
2023-04-14T15:25:11.674Z,14.43
2023-04-14T15:28:14.399Z,14.21
2023-04-14T15:31:16.651Z,13.98
2023-04-14T15:34:18.924Z,14.08
2023-04-14T15:37:21.374Z,14.32
2023-04-14T15:40:23.717Z,14.11
2023-04-14T15:43:27.742Z,14.05
2023-04-14T15:46:30.476Z,14.03
2023-04-14T15:49:32.750Z,13.98
2023-04-14T15:52:35.066Z,13.69
2023-04-14T15:55:37.929Z,13.73
2023-04-14T15:58:40.597Z,13.79
2023-04-14T16:01:42.909Z,13.89
2023-04-14T16:04:45.275Z,13.30
2023-04-14T16:07:47.606Z,13.55
2023-04-14T16:10:49.849Z,13.53
2023-04-14T16:13:52.572Z,13.48
2023-04-14T16:16:54.843Z,13.34
2023-04-14T16:19:57.153Z,13.00
2023-04-14T16:22:59.372Z,13.17
2023-04-14T16:26:01.741Z,13.13
2023-04-14T16:29:04.169Z,13.21
2023-04-14T16:32:06.413Z,13.11
2023-04-14T16:35:08.906Z,13.21
2023-04-14T16:38:11.141Z,13.19
2023-04-14T16:41:13.408Z,13.05
2023-04-14T16:44:15.664Z,13.01
2023-04-14T16:47:18.033Z,13.03
2023-04-14T16:50:20.656Z,12.99
2023-04-14T16:53:22.908Z,12.97
2023-04-14T16:56:25.137Z,12.96
2023-04-14T16:59:27.427Z,12.67
2023-04-14T17:02:29.782Z,12.85
2023-04-14T17:05:32.287Z,12.81
2023-04-14T17:08:34.645Z,12.75
2023-04-14T17:11:36.850Z,12.67
2023-04-14T17:14:39.161Z,12.34
2023-04-14T17:17:42.889Z,11.78
2023-04-14T17:20:45.172Z,11.04
2023-04-14T17:23:47.961Z,10.56
2023-04-14T17:26:50.386Z,10.06
2023-04-14T17:29:53.305Z,10.10
2023-04-14T17:32:55.601Z,10.22
2023-04-14T17:35:58.232Z,10.38
2023-04-14T17:39:00.642Z,10.45
2023-04-14T17:42:03.500Z,10.53
2023-04-14T17:45:06.325Z,10.59
2023-04-14T17:48:09.398Z,10.60
2023-04-14T17:51:11.779Z,10.64
2023-04-14T17:54:14.055Z,10.63
2023-04-14T17:57:17.359Z,10.40
2023-04-14T18:00:20.228Z,10.57
2023-04-14T18:03:22.589Z,10.57
2023-04-14T18:06:24.953Z,10.34
2023-04-14T18:09:28.106Z,10.37
2023-04-14T18:12:30.946Z,10.03
2023-04-14T18:15:33.213Z,10.33
2023-04-14T18:18:35.471Z,10.36
2023-04-14T18:21:38.239Z,10.38
2023-04-14T18:30:55.740Z,10.45
2023-04-14T18:34:04.509Z,10.35
2023-04-14T18:37:06.728Z,10.46
2023-04-14T18:40:09.425Z,10.17
2023-04-14T18:43:11.747Z,10.08
2023-04-14T18:46:14.050Z,10.15
2023-04-14T18:49:17.587Z,10.08
2023-04-14T18:52:19.999Z,9.96
2023-04-14T18:55:22.234Z,10.02
2023-04-14T18:58:25.184Z,9.74
2023-04-14T19:01:28.634Z,9.33
2023-04-14T19:04:31.203Z,9.26
2023-04-14T19:07:33.499Z,9.20
2023-04-14T19:10:36.369Z,9.06
2023-04-14T19:13:38.640Z,9.45
2023-04-14T19:16:40.976Z,9.63
2023-04-14T19:19:43.227Z,9.68
2023-04-14T19:22:45.561Z,9.83
2023-04-14T19:25:48.645Z,9.92
2023-04-14T19:28:52.458Z,9.94
2023-04-14T19:31:54.713Z,9.99
2023-04-14T19:34:57.615Z,10.10
2023-04-14T19:37:59.838Z,9.96
2023-04-14T19:41:02.395Z,10.00
2023-04-14T19:44:05.176Z,10.05
2023-04-14T19:47:07.427Z,10.07
2023-04-14T19:50:09.982Z,10.06
2023-04-14T19:53:12.274Z,10.05
2023-04-14T19:56:14.563Z,10.06
2023-04-14T19:59:16.827Z,10.04
2023-04-14T20:02:19.139Z,10.04
2023-04-14T20:05:22.362Z,10.07
2023-04-14T20:08:25.119Z,10.01
2023-04-14T20:11:28.225Z,10.13
2023-04-14T20:14:30.473Z,9.99
2023-04-14T20:17:33.462Z,9.64
2023-04-14T20:20:39.252Z,9.50
2023-04-14T20:23:41.782Z,9.51
2023-04-14T20:26:44.953Z,9.54
2023-04-14T20:29:47.237Z,9.43
2023-04-14T20:32:49.540Z,9.54
2023-04-14T20:35:53.389Z,9.72
2023-04-14T20:38:55.594Z,9.61
2023-04-14T20:41:58.027Z,9.51
2023-04-14T20:45:00.318Z,9.72
2023-04-14T20:48:02.609Z,9.59
2023-04-14T20:51:04.982Z,9.56
2023-04-14T20:54:07.301Z,9.51
2023-04-14T20:57:09.918Z,9.61
2023-04-14T21:00:15.485Z,9.62
2023-04-14T21:03:18.295Z,9.63
2023-04-14T21:06:20.639Z,9.65
2023-04-14T21:09:25.057Z,9.58
2023-04-14T21:12:35.397Z,9.57
2023-04-14T21:15:54.386Z,9.67
2023-04-14T21:18:58.334Z,9.60
2023-04-14T21:22:00.576Z,9.57
2023-04-14T21:25:02.910Z,9.55
2023-04-14T21:28:05.503Z,9.58
2023-04-14T21:31:07.885Z,9.60
2023-04-14T21:34:10.596Z,9.62
2023-04-14T21:37:15.641Z,9.57
2023-04-14T21:40:18.096Z,9.66
2023-04-14T21:43:20.703Z,9.58
2023-04-14T21:46:23.199Z,9.60
2023-04-14T21:49:25.754Z,9.56
2023-04-14T21:52:28.045Z,9.35
2023-04-14T21:55:30.279Z,9.58
2023-04-14T21:58:32.535Z,9.51
2023-04-14T22:01:36.433Z,9.57
2023-04-14T22:04:39.022Z,9.53
2023-04-14T22:07:41.409Z,9.47
2023-04-14T22:10:43.639Z,9.51
2023-04-14T22:13:46.582Z,9.49
2023-04-14T22:16:48.873Z,9.45
2023-04-14T22:19:51.346Z,9.46
2023-04-14T22:22:53.605Z,9.38
2023-04-14T22:25:56.303Z,9.31
2023-04-14T22:28:58.596Z,9.31
2023-04-14T22:32:00.945Z,9.36
2023-04-14T22:35:04.142Z,9.31
2023-04-14T22:38:07.042Z,9.33
2023-04-14T22:41:09.352Z,9.24
2023-04-14T22:44:11.635Z,9.27
2023-04-14T22:47:13.869Z,9.30
2023-04-14T22:50:16.117Z,9.33
2023-04-14T22:53:18.382Z,9.20
2023-04-14T22:56:20.642Z,9.10
2023-04-14T22:59:23.518Z,9.17
2023-04-14T23:02:27.506Z,9.12
2023-04-14T23:05:30.176Z,9.16
2023-04-14T23:08:32.441Z,9.11
2023-04-14T23:11:34.845Z,9.10
2023-04-14T23:14:37.132Z,8.92
2023-04-14T23:17:39.439Z,9.00
2023-04-14T23:20:41.958Z,8.91
2023-04-14T23:23:45.149Z,9.02
2023-04-14T23:26:47.479Z,9.02
2023-04-14T23:29:49.691Z,8.93
2023-04-14T23:32:52.171Z,8.98
2023-04-14T23:35:54.433Z,8.97
2023-04-14T23:38:56.723Z,9.01
2023-04-14T23:41:58.968Z,8.94
2023-04-14T23:45:01.419Z,8.97
2023-04-14T23:48:07.499Z,8.89
2023-04-14T23:51:20.361Z,8.85
2023-04-14T23:54:26.113Z,8.83
2023-04-14T23:57:28.385Z,8.86
